GMTN  Saniat Rmel  Airport

Morocco

Add Bookmark
ICAO GMTN
IATA TTU
Type Airport
Status Operational
Latitude
35° 35' 39" N
35.594299
Longitude
5° 19' 12" W
-5.320020
Local (DST + 1) UTC (GMT 0)
May 30, 2015 09:17 May 30, 2015 20:17
Sunrise-Sunset Local UTC
Begin Civil Twilight 05:36 04:36
Sunrise 06:06 05:06
Sunset 08:31 19:31
End Civil Twilight 09:01 20:01
VFR
VFR
MVFR
MVFR
IFR
VFR
LIFR
VFR
Unknown
Unavailable

Current Weather

METAR Observed VFR
GMTN 301900Z 06004KT 020V090 9999 FEW020 23/17 Q1016 BECMG CAVOK Sat, May 30, 2015 @ 19:00 UTC
(1 Hour, 17 Minutes ago)
Visual Flight Rules
Wind Visibility Clouds Conditions
060° at 4 knots (7 kph) 10 km or more
  • Few at 2,000 ft AGL
  • No significant weather
Temperatures Readings Precipitation
Current Temp
23°C
73°F
Dewpoint
17°C
63°F
Humidity 69%
Altimeter 30" Hg
Sea Level Pressure 1,016 mb
Field Elevation
10 m
33 ft
None Recorded

Additional weather within a 92.6km radius of GMTN

Map ICAO Location
GMTT 55.9km W/NW (285°)
LXGB 62km N (360°)
VFR
VFR
MVFR
MVFR
IFR
VFR
LIFR
VFR
Unknown
Unavailable
-
-

CheckWX.com is intended as a tool to help pilots better visualize weather data. It is not intended as a substitute for an official weather briefing obtained from a Flight Service Station. CheckWX.com does not meet the FAA requirements for an official pre-flight weather briefing. Therefore, it's important that pilots still call and obtain an official FSS pre-flight weather briefing.

© 2007-2015 CheckWX.com
20:17:31 UTC